sensor_id;sensor_type;location;lat;lon;timestamp;P1;durP1;ratioP1;P2;durP2;ratioP2
56724;SDS011;42608;52.776;6.968;2023-05-07T00:00:16;16.65;;;13.80;;
56724;SDS011;42608;52.776;6.968;2023-05-07T00:02:44;17.08;;;15.27;;
56724;SDS011;42608;52.776;6.968;2023-05-07T00:05:10;16.98;;;14.25;;
56724;SDS011;42608;52.776;6.968;2023-05-07T00:07:36;16.95;;;15.32;;
56724;SDS011;42608;52.776;6.968;2023-05-07T00:10:02;17.35;;;15.55;;
56724;SDS011;42608;52.776;6.968;2023-05-07T00:12:28;17.38;;;15.57;;
56724;SDS011;42608;52.776;6.968;2023-05-07T00:14:58;16.77;;;14.32;;
56724;SDS011;42608;52.776;6.968;2023-05-07T00:17:29;17.70;;;15.65;;
56724;SDS011;42608;52.776;6.968;2023-05-07T00:19:55;17.48;;;15.77;;
56724;SDS011;42608;52.776;6.968;2023-05-07T00:22:20;18.02;;;16.02;;
56724;SDS011;42608;52.776;6.968;2023-05-07T00:24:46;18.23;;;15.13;;
56724;SDS011;42608;52.776;6.968;2023-05-07T00:27:12;17.70;;;15.82;;
56724;SDS011;42608;52.776;6.968;2023-05-07T00:29:37;17.02;;;15.13;;
56724;SDS011;42608;52.776;6.968;2023-05-07T00:32:03;18.70;;;16.90;;
56724;SDS011;42608;52.776;6.968;2023-05-07T00:34:30;18.42;;;16.45;;
56724;SDS011;42608;52.776;6.968;2023-05-07T00:36:55;17.80;;;16.10;;
56724;SDS011;42608;52.776;6.968;2023-05-07T00:39:21;18.17;;;16.48;;
56724;SDS011;42608;52.776;6.968;2023-05-07T00:41:46;18.45;;;16.58;;
56724;SDS011;42608;52.776;6.968;2023-05-07T00:44:12;20.08;;;17.50;;
56724;SDS011;42608;52.776;6.968;2023-05-07T00:46:39;19.95;;;17.60;;
56724;SDS011;42608;52.776;6.968;2023-05-07T00:49:05;19.48;;;17.48;;
56724;SDS011;42608;52.776;6.968;2023-05-07T00:51:31;19.45;;;17.55;;
56724;SDS011;42608;52.776;6.968;2023-05-07T00:53:59;17.73;;;16.05;;
56724;SDS011;42608;52.776;6.968;2023-05-07T00:56:27;20.13;;;17.92;;
56724;SDS011;42608;52.776;6.968;2023-05-07T00:58:53;19.63;;;17.52;;
56724;SDS011;42608;52.776;6.968;2023-05-07T01:01:19;20.70;;;18.60;;
56724;SDS011;42608;52.776;6.968;2023-05-07T01:03:44;19.80;;;17.80;;
56724;SDS011;42608;52.776;6.968;2023-05-07T01:06:10;21.20;;;19.05;;
56724;SDS011;42608;52.776;6.968;2023-05-07T01:08:38;23.02;;;19.55;;
56724;SDS011;42608;52.776;6.968;2023-05-07T01:11:06;21.08;;;18.83;;
56724;SDS011;42608;52.776;6.968;2023-05-07T01:13:33;23.40;;;20.17;;
56724;SDS011;42608;52.776;6.968;2023-05-07T01:16:00;20.90;;;18.83;;
56724;SDS011;42608;52.776;6.968;2023-05-07T01:18:26;22.75;;;20.40;;
56724;SDS011;42608;52.776;6.968;2023-05-07T01:20:52;21.58;;;19.38;;
56724;SDS011;42608;52.776;6.968;2023-05-07T01:23:19;22.45;;;20.17;;
56724;SDS011;42608;52.776;6.968;2023-05-07T01:25:52;24.00;;;21.45;;
56724;SDS011;42608;52.776;6.968;2023-05-07T01:28:18;23.55;;;21.23;;
56724;SDS011;42608;52.776;6.968;2023-05-07T01:30:44;23.45;;;21.02;;
56724;SDS011;42608;52.776;6.968;2023-05-07T01:33:14;23.83;;;21.30;;
56724;SDS011;42608;52.776;6.968;2023-05-07T01:35:45;23.80;;;21.50;;
56724;SDS011;42608;52.776;6.968;2023-05-07T01:38:12;26.05;;;23.30;;
56724;SDS011;42608;52.776;6.968;2023-05-07T01:40:38;24.88;;;22.25;;
56724;SDS011;42608;52.776;6.968;2023-05-07T01:43:04;26.15;;;23.40;;
56724;SDS011;42608;52.776;6.968;2023-05-07T01:45:30;25.10;;;22.27;;
56724;SDS011;42608;52.776;6.968;2023-05-07T01:48:00;26.02;;;23.33;;
56724;SDS011;42608;52.776;6.968;2023-05-07T01:50:27;26.23;;;23.55;;
56724;SDS011;42608;52.776;6.968;2023-05-07T01:52:53;25.35;;;22.75;;
56724;SDS011;42608;52.776;6.968;2023-05-07T01:55:19;26.35;;;23.55;;
56724;SDS011;42608;52.776;6.968;2023-05-07T01:57:45;27.27;;;24.35;;
56724;SDS011;42608;52.776;6.968;2023-05-07T02:00:11;28.67;;;25.60;;
56724;SDS011;42608;52.776;6.968;2023-05-07T02:02:37;27.58;;;24.70;;
56724;SDS011;42608;52.776;6.968;2023-05-07T02:05:03;28.05;;;25.13;;
56724;SDS011;42608;52.776;6.968;2023-05-07T02:07:30;28.60;;;25.50;;
56724;SDS011;42608;52.776;6.968;2023-05-07T02:09:55;28.42;;;25.15;;
56724;SDS011;42608;52.776;6.968;2023-05-07T02:12:21;29.58;;;25.48;;
56724;SDS011;42608;52.776;6.968;2023-05-07T02:14:47;31.15;;;27.42;;
56724;SDS011;42608;52.776;6.968;2023-05-07T02:17:13;27.48;;;24.58;;
56724;SDS011;42608;52.776;6.968;2023-05-07T02:19:39;30.13;;;26.83;;
56724;SDS011;42608;52.776;6.968;2023-05-07T02:22:05;30.65;;;27.35;;
56724;SDS011;42608;52.776;6.968;2023-05-07T02:24:30;30.98;;;26.88;;
56724;SDS011;42608;52.776;6.968;2023-05-07T02:26:56;35.13;;;28.17;;
56724;SDS011;42608;52.776;6.968;2023-05-07T02:29:21;29.98;;;26.88;;
56724;SDS011;42608;52.776;6.968;2023-05-07T02:31:47;34.72;;;28.40;;
56724;SDS011;42608;52.776;6.968;2023-05-07T02:34:18;32.63;;;29.13;;
56724;SDS011;42608;52.776;6.968;2023-05-07T02:36:44;32.13;;;28.55;;
56724;SDS011;42608;52.776;6.968;2023-05-07T02:39:10;31.88;;;28.48;;
56724;SDS011;42608;52.776;6.968;2023-05-07T02:41:37;35.35;;;30.35;;
56724;SDS011;42608;52.776;6.968;2023-05-07T02:44:03;34.53;;;30.90;;
56724;SDS011;42608;52.776;6.968;2023-05-07T02:46:29;38.55;;;33.42;;
56724;SDS011;42608;52.776;6.968;2023-05-07T02:48:54;35.80;;;29.85;;
56724;SDS011;42608;52.776;6.968;2023-05-07T02:51:20;37.42;;;31.25;;
56724;SDS011;42608;52.776;6.968;2023-05-07T02:53:47;35.53;;;31.02;;
56724;SDS011;42608;52.776;6.968;2023-05-07T02:56:13;34.22;;;30.52;;
56724;SDS011;42608;52.776;6.968;2023-05-07T02:58:39;33.25;;;28.80;;
56724;SDS011;42608;52.776;6.968;2023-05-07T03:01:05;34.88;;;31.00;;
56724;SDS011;42608;52.776;6.968;2023-05-07T03:03:31;40.78;;;33.08;;
56724;SDS011;42608;52.776;6.968;2023-05-07T03:05:57;37.00;;;33.15;;
56724;SDS011;42608;52.776;6.968;2023-05-07T03:08:23;43.95;;;31.75;;
56724;SDS011;42608;52.776;6.968;2023-05-07T03:10:49;35.40;;;30.98;;
56724;SDS011;42608;52.776;6.968;2023-05-07T03:13:15;36.47;;;30.10;;
56724;SDS011;42608;52.776;6.968;2023-05-07T03:15:40;35.58;;;31.88;;
56724;SDS011;42608;52.776;6.968;2023-05-07T03:18:06;35.55;;;29.58;;
56724;SDS011;42608;52.776;6.968;2023-05-07T03:20:32;33.25;;;29.60;;
56724;SDS011;42608;52.776;6.968;2023-05-07T03:22:57;34.78;;;29.98;;
56724;SDS011;42608;52.776;6.968;2023-05-07T03:25:23;33.33;;;29.83;;
56724;SDS011;42608;52.776;6.968;2023-05-07T03:27:49;35.38;;;31.55;;
56724;SDS011;42608;52.776;6.968;2023-05-07T03:30:14;37.08;;;31.92;;
56724;SDS011;42608;52.776;6.968;2023-05-07T03:32:40;36.38;;;32.38;;
56724;SDS011;42608;52.776;6.968;2023-05-07T03:35:06;36.00;;;32.10;;
56724;SDS011;42608;52.776;6.968;2023-05-07T03:37:32;35.42;;;31.58;;
56724;SDS011;42608;52.776;6.968;2023-05-07T03:39:58;33.65;;;29.17;;
56724;SDS011;42608;52.776;6.968;2023-05-07T03:42:25;38.15;;;30.20;;
56724;SDS011;42608;52.776;6.968;2023-05-07T03:44:50;37.70;;;31.17;;
56724;SDS011;42608;52.776;6.968;2023-05-07T03:47:16;32.63;;;29.13;;
56724;SDS011;42608;52.776;6.968;2023-05-07T03:49:42;32.17;;;28.65;;
56724;SDS011;42608;52.776;6.968;2023-05-07T03:52:07;31.42;;;27.48;;
56724;SDS011;42608;52.776;6.968;2023-05-07T03:54:33;31.48;;;28.10;;
56724;SDS011;42608;52.776;6.968;2023-05-07T03:56:59;33.45;;;28.45;;
56724;SDS011;42608;52.776;6.968;2023-05-07T03:59:24;30.70;;;27.52;;
56724;SDS011;42608;52.776;6.968;2023-05-07T04:01:50;32.47;;;28.90;;
56724;SDS011;42608;52.776;6.968;2023-05-07T04:04:16;29.70;;;26.52;;
56724;SDS011;42608;52.776;6.968;2023-05-07T04:06:42;30.33;;;27.10;;
56724;SDS011;42608;52.776;6.968;2023-05-07T04:09:07;29.70;;;26.90;;
56724;SDS011;42608;52.776;6.968;2023-05-07T04:11:34;29.80;;;25.58;;
56724;SDS011;42608;52.776;6.968;2023-05-07T04:14:00;29.17;;;26.20;;
56724;SDS011;42608;52.776;6.968;2023-05-07T04:16:26;29.08;;;26.08;;
56724;SDS011;42608;52.776;6.968;2023-05-07T04:18:51;28.98;;;26.08;;
56724;SDS011;42608;52.776;6.968;2023-05-07T04:21:18;27.42;;;24.63;;
56724;SDS011;42608;52.776;6.968;2023-05-07T04:23:45;28.10;;;25.20;;
56724;SDS011;42608;52.776;6.968;2023-05-07T04:26:12;29.63;;;26.55;;
56724;SDS011;42608;52.776;6.968;2023-05-07T04:28:38;27.70;;;24.55;;
56724;SDS011;42608;52.776;6.968;2023-05-07T04:31:04;28.95;;;26.05;;
56724;SDS011;42608;52.776;6.968;2023-05-07T04:33:30;27.30;;;24.42;;
56724;SDS011;42608;52.776;6.968;2023-05-07T04:35:56;27.38;;;24.52;;
56724;SDS011;42608;52.776;6.968;2023-05-07T04:38:22;28.75;;;25.73;;
56724;SDS011;42608;52.776;6.968;2023-05-07T04:40:48;28.75;;;25.63;;
56724;SDS011;42608;52.776;6.968;2023-05-07T04:43:14;26.90;;;24.25;;
56724;SDS011;42608;52.776;6.968;2023-05-07T04:45:41;27.02;;;24.33;;
56724;SDS011;42608;52.776;6.968;2023-05-07T04:48:07;28.58;;;25.77;;
56724;SDS011;42608;52.776;6.968;2023-05-07T04:50:34;28.15;;;25.17;;
56724;SDS011;42608;52.776;6.968;2023-05-07T04:53:00;26.95;;;24.15;;
56724;SDS011;42608;52.776;6.968;2023-05-07T04:55:26;28.63;;;25.45;;
56724;SDS011;42608;52.776;6.968;2023-05-07T04:57:52;28.02;;;24.38;;
56724;SDS011;42608;52.776;6.968;2023-05-07T05:00:18;26.45;;;22.98;;
56724;SDS011;42608;52.776;6.968;2023-05-07T05:02:45;26.08;;;23.33;;
56724;SDS011;42608;52.776;6.968;2023-05-07T05:05:11;26.63;;;23.88;;
56724;SDS011;42608;52.776;6.968;2023-05-07T05:07:36;26.85;;;24.17;;
56724;SDS011;42608;52.776;6.968;2023-05-07T05:10:02;28.17;;;25.13;;
56724;SDS011;42608;52.776;6.968;2023-05-07T05:12:30;28.33;;;25.45;;
56724;SDS011;42608;52.776;6.968;2023-05-07T05:14:55;30.75;;;26.13;;
56724;SDS011;42608;52.776;6.968;2023-05-07T05:17:21;29.90;;;26.83;;
56724;SDS011;42608;52.776;6.968;2023-05-07T05:19:47;28.15;;;25.20;;
56724;SDS011;42608;52.776;6.968;2023-05-07T05:22:12;29.10;;;26.27;;
56724;SDS011;42608;52.776;6.968;2023-05-07T05:24:38;27.92;;;24.92;;
56724;SDS011;42608;52.776;6.968;2023-05-07T05:27:04;30.27;;;27.08;;
56724;SDS011;42608;52.776;6.968;2023-05-07T05:29:30;30.42;;;27.17;;
56724;SDS011;42608;52.776;6.968;2023-05-07T05:31:56;29.50;;;26.45;;
56724;SDS011;42608;52.776;6.968;2023-05-07T05:34:22;29.33;;;26.33;;
56724;SDS011;42608;52.776;6.968;2023-05-07T05:36:48;29.77;;;26.27;;
56724;SDS011;42608;52.776;6.968;2023-05-07T05:39:14;31.48;;;28.17;;
56724;SDS011;42608;52.776;6.968;2023-05-07T05:41:39;30.08;;;26.00;;
56724;SDS011;42608;52.776;6.968;2023-05-07T05:44:05;29.55;;;26.52;;
56724;SDS011;42608;52.776;6.968;2023-05-07T05:46:31;32.40;;;28.95;;
56724;SDS011;42608;52.776;6.968;2023-05-07T05:48:57;31.58;;;27.83;;
56724;SDS011;42608;52.776;6.968;2023-05-07T05:51:22;29.98;;;26.98;;
56724;SDS011;42608;52.776;6.968;2023-05-07T05:53:48;30.83;;;27.50;;
56724;SDS011;42608;52.776;6.968;2023-05-07T05:56:15;30.67;;;27.13;;
56724;SDS011;42608;52.776;6.968;2023-05-07T05:58:41;29.92;;;26.83;;
56724;SDS011;42608;52.776;6.968;2023-05-07T06:01:07;33.53;;;28.52;;
56724;SDS011;42608;52.776;6.968;2023-05-07T06:03:33;35.65;;;28.80;;
56724;SDS011;42608;52.776;6.968;2023-05-07T06:05:58;32.25;;;28.95;;
56724;SDS011;42608;52.776;6.968;2023-05-07T06:08:25;31.60;;;28.30;;
56724;SDS011;42608;52.776;6.968;2023-05-07T06:10:54;31.90;;;28.45;;
56724;SDS011;42608;52.776;6.968;2023-05-07T06:13:20;31.17;;;27.45;;
56724;SDS011;42608;52.776;6.968;2023-05-07T06:15:46;30.27;;;27.05;;
56724;SDS011;42608;52.776;6.968;2023-05-07T06:18:12;33.17;;;29.80;;
56724;SDS011;42608;52.776;6.968;2023-05-07T06:20:37;32.42;;;28.95;;
56724;SDS011;42608;52.776;6.968;2023-05-07T06:23:03;31.13;;;28.02;;
56724;SDS011;42608;52.776;6.968;2023-05-07T06:25:29;31.48;;;28.15;;
56724;SDS011;42608;52.776;6.968;2023-05-07T06:27:54;33.63;;;30.10;;
56724;SDS011;42608;52.776;6.968;2023-05-07T06:30:20;32.28;;;28.85;;
56724;SDS011;42608;52.776;6.968;2023-05-07T06:32:46;32.72;;;29.08;;
56724;SDS011;42608;52.776;6.968;2023-05-07T06:35:11;32.00;;;28.65;;
56724;SDS011;42608;52.776;6.968;2023-05-07T06:37:38;31.38;;;28.13;;
56724;SDS011;42608;52.776;6.968;2023-05-07T06:40:05;31.40;;;27.98;;
56724;SDS011;42608;52.776;6.968;2023-05-07T06:42:32;34.38;;;30.10;;
56724;SDS011;42608;52.776;6.968;2023-05-07T06:44:57;32.75;;;29.27;;
56724;SDS011;42608;52.776;6.968;2023-05-07T06:47:23;33.65;;;30.08;;
56724;SDS011;42608;52.776;6.968;2023-05-07T06:49:49;31.63;;;28.58;;
56724;SDS011;42608;52.776;6.968;2023-05-07T06:52:14;34.38;;;30.83;;
56724;SDS011;42608;52.776;6.968;2023-05-07T06:54:40;33.47;;;30.02;;
56724;SDS011;42608;52.776;6.968;2023-05-07T06:57:06;32.05;;;28.60;;
56724;SDS011;42608;52.776;6.968;2023-05-07T06:59:32;32.00;;;28.70;;
56724;SDS011;42608;52.776;6.968;2023-05-07T07:01:57;33.72;;;30.13;;
56724;SDS011;42608;52.776;6.968;2023-05-07T07:04:23;33.90;;;30.38;;
56724;SDS011;42608;52.776;6.968;2023-05-07T07:06:51;34.25;;;29.75;;
56724;SDS011;42608;52.776;6.968;2023-05-07T07:09:18;33.53;;;29.98;;
56724;SDS011;42608;52.776;6.968;2023-05-07T07:11:44;34.40;;;30.83;;
56724;SDS011;42608;52.776;6.968;2023-05-07T07:14:10;33.33;;;29.80;;
56724;SDS011;42608;52.776;6.968;2023-05-07T07:16:36;32.88;;;29.40;;
56724;SDS011;42608;52.776;6.968;2023-05-07T07:19:01;33.35;;;30.00;;
56724;SDS011;42608;52.776;6.968;2023-05-07T07:21:27;33.85;;;30.42;;
56724;SDS011;42608;52.776;6.968;2023-05-07T07:23:53;34.13;;;30.45;;
56724;SDS011;42608;52.776;6.968;2023-05-07T07:26:18;34.05;;;30.45;;
56724;SDS011;42608;52.776;6.968;2023-05-07T07:28:44;33.13;;;29.52;;
56724;SDS011;42608;52.776;6.968;2023-05-07T07:31:10;32.58;;;29.02;;
56724;SDS011;42608;52.776;6.968;2023-05-07T07:33:36;35.78;;;30.58;;
56724;SDS011;42608;52.776;6.968;2023-05-07T07:36:02;34.80;;;31.10;;
56724;SDS011;42608;52.776;6.968;2023-05-07T07:38:28;32.72;;;29.33;;
56724;SDS011;42608;52.776;6.968;2023-05-07T07:40:54;33.47;;;29.80;;
56724;SDS011;42608;52.776;6.968;2023-05-07T07:43:20;32.85;;;29.50;;
56724;SDS011;42608;52.776;6.968;2023-05-07T07:45:45;34.03;;;30.42;;
56724;SDS011;42608;52.776;6.968;2023-05-07T07:48:11;34.85;;;30.83;;
56724;SDS011;42608;52.776;6.968;2023-05-07T07:50:37;32.22;;;28.90;;
56724;SDS011;42608;52.776;6.968;2023-05-07T07:53:03;31.83;;;28.42;;
56724;SDS011;42608;52.776;6.968;2023-05-07T07:55:29;33.38;;;29.33;;
56724;SDS011;42608;52.776;6.968;2023-05-07T07:57:56;31.45;;;27.75;;
56724;SDS011;42608;52.776;6.968;2023-05-07T08:00:21;30.83;;;27.63;;
56724;SDS011;42608;52.776;6.968;2023-05-07T08:02:47;31.67;;;28.48;;
56724;SDS011;42608;52.776;6.968;2023-05-07T08:05:13;29.92;;;26.98;;
56724;SDS011;42608;52.776;6.968;2023-05-07T08:07:40;30.83;;;27.58;;
56724;SDS011;42608;52.776;6.968;2023-05-07T08:10:06;34.35;;;28.95;;
56724;SDS011;42608;52.776;6.968;2023-05-07T08:12:32;33.45;;;28.98;;
56724;SDS011;42608;52.776;6.968;2023-05-07T08:14:57;32.42;;;28.98;;
56724;SDS011;42608;52.776;6.968;2023-05-07T08:17:23;29.67;;;26.75;;
56724;SDS011;42608;52.776;6.968;2023-05-07T08:19:49;30.75;;;26.88;;
56724;SDS011;42608;52.776;6.968;2023-05-07T08:22:15;29.05;;;26.10;;
56724;SDS011;42608;52.776;6.968;2023-05-07T08:24:42;28.75;;;25.85;;
56724;SDS011;42608;52.776;6.968;2023-05-07T08:27:08;28.65;;;25.77;;
56724;SDS011;42608;52.776;6.968;2023-05-07T08:29:34;29.27;;;26.20;;
56724;SDS011;42608;52.776;6.968;2023-05-07T08:32:00;28.73;;;25.73;;
56724;SDS011;42608;52.776;6.968;2023-05-07T08:34:26;28.38;;;25.38;;
56724;SDS011;42608;52.776;6.968;2023-05-07T08:36:52;28.48;;;25.63;;
56724;SDS011;42608;52.776;6.968;2023-05-07T08:39:18;28.10;;;25.23;;
56724;SDS011;42608;52.776;6.968;2023-05-07T08:41:44;29.33;;;24.70;;
56724;SDS011;42608;52.776;6.968;2023-05-07T08:44:13;28.50;;;25.45;;
56724;SDS011;42608;52.776;6.968;2023-05-07T08:46:39;28.98;;;25.95;;
56724;SDS011;42608;52.776;6.968;2023-05-07T08:49:06;27.20;;;24.30;;
56724;SDS011;42608;52.776;6.968;2023-05-07T08:51:33;26.45;;;23.85;;
56724;SDS011;42608;52.776;6.968;2023-05-07T08:53:59;26.55;;;24.05;;
56724;SDS011;42608;52.776;6.968;2023-05-07T08:56:26;26.10;;;23.33;;
56724;SDS011;42608;52.776;6.968;2023-05-07T08:58:53;24.75;;;22.42;;
56724;SDS011;42608;52.776;6.968;2023-05-07T09:01:21;25.63;;;23.10;;
56724;SDS011;42608;52.776;6.968;2023-05-07T09:03:47;26.13;;;23.42;;
56724;SDS011;42608;52.776;6.968;2023-05-07T09:06:13;25.92;;;23.42;;
56724;SDS011;42608;52.776;6.968;2023-05-07T09:08:39;24.83;;;22.33;;
56724;SDS011;42608;52.776;6.968;2023-05-07T09:11:05;24.15;;;21.45;;
56724;SDS011;42608;52.776;6.968;2023-05-07T09:13:30;25.88;;;23.17;;
56724;SDS011;42608;52.776;6.968;2023-05-07T09:15:56;25.17;;;22.77;;
56724;SDS011;42608;52.776;6.968;2023-05-07T09:18:25;26.00;;;23.30;;
56724;SDS011;42608;52.776;6.968;2023-05-07T09:20:51;24.98;;;21.45;;
56724;SDS011;42608;52.776;6.968;2023-05-07T09:23:16;23.35;;;20.98;;
56724;SDS011;42608;52.776;6.968;2023-05-07T09:25:42;24.98;;;21.80;;
56724;SDS011;42608;52.776;6.968;2023-05-07T09:28:08;22.63;;;20.30;;
56724;SDS011;42608;52.776;6.968;2023-05-07T09:30:35;24.95;;;21.90;;
56724;SDS011;42608;52.776;6.968;2023-05-07T09:33:01;23.27;;;20.98;;
56724;SDS011;42608;52.776;6.968;2023-05-07T09:35:28;23.30;;;20.80;;
56724;SDS011;42608;52.776;6.968;2023-05-07T09:37:58;23.38;;;20.88;;
56724;SDS011;42608;52.776;6.968;2023-05-07T09:40:26;22.95;;;20.70;;
56724;SDS011;42608;52.776;6.968;2023-05-07T09:42:53;24.00;;;21.50;;
56724;SDS011;42608;52.776;6.968;2023-05-07T09:45:26;22.10;;;19.90;;
56724;SDS011;42608;52.776;6.968;2023-05-07T09:47:56;23.38;;;20.95;;
56724;SDS011;42608;52.776;6.968;2023-05-07T09:50:27;20.65;;;18.65;;
56724;SDS011;42608;52.776;6.968;2023-05-07T09:52:55;21.42;;;19.20;;
56724;SDS011;42608;52.776;6.968;2023-05-07T09:55:21;22.67;;;20.45;;
56724;SDS011;42608;52.776;6.968;2023-05-07T09:57:51;23.10;;;20.65;;
56724;SDS011;42608;52.776;6.968;2023-05-07T10:00:19;23.42;;;19.42;;
56724;SDS011;42608;52.776;6.968;2023-05-07T10:02:46;21.63;;;19.63;;
56724;SDS011;42608;52.776;6.968;2023-05-07T10:05:14;21.77;;;19.58;;
56724;SDS011;42608;52.776;6.968;2023-05-07T10:07:41;23.08;;;20.83;;
56724;SDS011;42608;52.776;6.968;2023-05-07T10:10:07;22.20;;;20.02;;
56724;SDS011;42608;52.776;6.968;2023-05-07T10:12:33;22.75;;;20.63;;
56724;SDS011;42608;52.776;6.968;2023-05-07T10:15:07;21.08;;;19.08;;
56724;SDS011;42608;52.776;6.968;2023-05-07T10:17:37;23.45;;;21.15;;
56724;SDS011;42608;52.776;6.968;2023-05-07T10:20:04;23.52;;;21.23;;
56724;SDS011;42608;52.776;6.968;2023-05-07T10:22:32;22.77;;;20.58;;
56724;SDS011;42608;52.776;6.968;2023-05-07T10:25:12;22.60;;;20.48;;
56724;SDS011;42608;52.776;6.968;2023-05-07T10:27:42;22.30;;;20.10;;
56724;SDS011;42608;52.776;6.968;2023-05-07T10:30:13;22.42;;;20.33;;
56724;SDS011;42608;52.776;6.968;2023-05-07T10:32:53;23.05;;;20.73;;
56724;SDS011;42608;52.776;6.968;2023-05-07T10:35:23;22.50;;;20.35;;
56724;SDS011;42608;52.776;6.968;2023-05-07T10:37:51;21.30;;;19.20;;
56724;SDS011;42608;52.776;6.968;2023-05-07T10:40:17;21.17;;;19.17;;
56724;SDS011;42608;52.776;6.968;2023-05-07T10:45:24;21.00;;;18.90;;
56724;SDS011;42608;52.776;6.968;2023-05-07T10:48:09;21.02;;;19.02;;
56724;SDS011;42608;52.776;6.968;2023-05-07T10:50:40;21.17;;;18.85;;
56724;SDS011;42608;52.776;6.968;2023-05-07T10:55:42;20.98;;;19.08;;
56724;SDS011;42608;52.776;6.968;2023-05-07T11:00:46;21.95;;;19.75;;
56724;SDS011;42608;52.776;6.968;2023-05-07T11:03:13;23.05;;;20.75;;
56724;SDS011;42608;52.776;6.968;2023-05-07T11:05:40;21.90;;;19.70;;
56724;SDS011;42608;52.776;6.968;2023-05-07T11:08:07;20.45;;;18.65;;
56724;SDS011;42608;52.776;6.968;2023-05-07T11:10:52;20.50;;;18.50;;
56724;SDS011;42608;52.776;6.968;2023-05-07T11:16:22;21.80;;;19.70;;
56724;SDS011;42608;52.776;6.968;2023-05-07T11:18:49;20.27;;;18.50;;
56724;SDS011;42608;52.776;6.968;2023-05-07T11:21:33;22.10;;;19.80;;
56724;SDS011;42608;52.776;6.968;2023-05-07T11:24:00;21.05;;;18.98;;
56724;SDS011;42608;52.776;6.968;2023-05-07T11:26:27;22.35;;;20.02;;
56724;SDS011;42608;52.776;6.968;2023-05-07T11:29:10;19.48;;;17.67;;
56724;SDS011;42608;52.776;6.968;2023-05-07T11:31:52;20.25;;;18.20;;
56724;SDS011;42608;52.776;6.968;2023-05-07T11:34:23;21.15;;;19.10;;
56724;SDS011;42608;52.776;6.968;2023-05-07T11:36:50;21.10;;;19.10;;
56724;SDS011;42608;52.776;6.968;2023-05-07T11:39:23;19.92;;;18.08;;
56724;SDS011;42608;52.776;6.968;2023-05-07T11:41:54;19.55;;;17.65;;
56724;SDS011;42608;52.776;6.968;2023-05-07T11:44:20;19.00;;;17.10;;
56724;SDS011;42608;52.776;6.968;2023-05-07T11:46:46;20.23;;;18.35;;
56724;SDS011;42608;52.776;6.968;2023-05-07T11:49:13;18.98;;;17.25;;
56724;SDS011;42608;52.776;6.968;2023-05-07T11:51:39;19.90;;;18.00;;
56724;SDS011;42608;52.776;6.968;2023-05-07T11:54:05;18.92;;;17.17;;
56724;SDS011;42608;52.776;6.968;2023-05-07T11:56:36;19.92;;;17.67;;
56724;SDS011;42608;52.776;6.968;2023-05-07T11:59:02;21.05;;;18.98;;
56724;SDS011;42608;52.776;6.968;2023-05-07T12:01:28;18.67;;;16.92;;
56724;SDS011;42608;52.776;6.968;2023-05-07T12:03:53;20.42;;;18.50;;
56724;SDS011;42608;52.776;6.968;2023-05-07T12:06:19;19.15;;;17.35;;
56724;SDS011;42608;52.776;6.968;2023-05-07T12:08:46;19.25;;;17.35;;
56724;SDS011;42608;52.776;6.968;2023-05-07T12:11:18;17.35;;;15.70;;
56724;SDS011;42608;52.776;6.968;2023-05-07T12:13:48;18.35;;;16.65;;
56724;SDS011;42608;52.776;6.968;2023-05-07T12:16:14;19.00;;;17.25;;
56724;SDS011;42608;52.776;6.968;2023-05-07T12:18:40;17.52;;;15.57;;
56724;SDS011;42608;52.776;6.968;2023-05-07T12:21:06;17.05;;;15.52;;
56724;SDS011;42608;52.776;6.968;2023-05-07T12:23:33;17.25;;;15.68;;
56724;SDS011;42608;52.776;6.968;2023-05-07T12:26:03;18.90;;;17.10;;
56724;SDS011;42608;52.776;6.968;2023-05-07T12:28:29;18.42;;;16.70;;
56724;SDS011;42608;52.776;6.968;2023-05-07T12:31:02;16.70;;;15.27;;
56724;SDS011;42608;52.776;6.968;2023-05-07T12:33:27;15.70;;;14.20;;
56724;SDS011;42608;52.776;6.968;2023-05-07T12:35:54;17.00;;;15.40;;
56724;SDS011;42608;52.776;6.968;2023-05-07T12:38:21;16.08;;;14.68;;
56724;SDS011;42608;52.776;6.968;2023-05-07T12:40:52;15.93;;;14.50;;
56724;SDS011;42608;52.776;6.968;2023-05-07T12:43:20;16.48;;;14.88;;
56724;SDS011;42608;52.776;6.968;2023-05-07T12:45:47;15.55;;;14.15;;
56724;SDS011;42608;52.776;6.968;2023-05-07T12:48:14;17.70;;;16.10;;
56724;SDS011;42608;52.776;6.968;2023-05-07T12:50:40;15.52;;;14.18;;
56724;SDS011;42608;52.776;6.968;2023-05-07T12:53:07;15.32;;;13.98;;
56724;SDS011;42608;52.776;6.968;2023-05-07T12:55:43;13.68;;;12.48;;
56724;SDS011;42608;52.776;6.968;2023-05-07T12:58:26;14.25;;;13.02;;
56724;SDS011;42608;52.776;6.968;2023-05-07T13:00:54;14.15;;;12.90;;
56724;SDS011;42608;52.776;6.968;2023-05-07T13:03:36;14.25;;;13.05;;
56724;SDS011;42608;52.776;6.968;2023-05-07T13:06:04;15.13;;;13.30;;
56724;SDS011;42608;52.776;6.968;2023-05-07T13:08:32;13.27;;;11.98;;
56724;SDS011;42608;52.776;6.968;2023-05-07T13:11:00;13.48;;;12.18;;
56724;SDS011;42608;52.776;6.968;2023-05-07T13:13:39;13.57;;;12.27;;
56724;SDS011;42608;52.776;6.968;2023-05-07T13:16:05;14.23;;;12.82;;
56724;SDS011;42608;52.776;6.968;2023-05-07T13:18:33;13.98;;;12.70;;
56724;SDS011;42608;52.776;6.968;2023-05-07T13:20:59;13.68;;;12.48;;
56724;SDS011;42608;52.776;6.968;2023-05-07T13:23:25;12.95;;;11.85;;
56724;SDS011;42608;52.776;6.968;2023-05-07T13:25:51;14.20;;;12.90;;
56724;SDS011;42608;52.776;6.968;2023-05-07T13:28:20;12.98;;;11.88;;
56724;SDS011;42608;52.776;6.968;2023-05-07T13:30:47;13.27;;;12.00;;
56724;SDS011;42608;52.776;6.968;2023-05-07T13:33:13;13.90;;;12.07;;
56724;SDS011;42608;52.776;6.968;2023-05-07T13:35:39;13.25;;;12.15;;
56724;SDS011;42608;52.776;6.968;2023-05-07T13:38:05;13.50;;;12.30;;
56724;SDS011;42608;52.776;6.968;2023-05-07T13:40:30;12.95;;;11.77;;
56724;SDS011;42608;52.776;6.968;2023-05-07T13:42:57;13.18;;;11.98;;
56724;SDS011;42608;52.776;6.968;2023-05-07T13:45:24;12.45;;;11.20;;
56724;SDS011;42608;52.776;6.968;2023-05-07T13:47:51;14.32;;;13.00;;
56724;SDS011;42608;52.776;6.968;2023-05-07T13:50:16;12.98;;;11.77;;
56724;SDS011;42608;52.776;6.968;2023-05-07T13:52:43;12.52;;;11.52;;
56724;SDS011;42608;52.776;6.968;2023-05-07T13:55:18;13.98;;;12.77;;
56724;SDS011;42608;52.776;6.968;2023-05-07T13:57:46;13.68;;;12.43;;
56724;SDS011;42608;52.776;6.968;2023-05-07T14:00:12;13.82;;;12.73;;
56724;SDS011;42608;52.776;6.968;2023-05-07T14:02:39;13.75;;;12.40;;
56724;SDS011;42608;52.776;6.968;2023-05-07T14:05:05;13.63;;;12.43;;
56724;SDS011;42608;52.776;6.968;2023-05-07T14:07:32;12.00;;;11.00;;
56724;SDS011;42608;52.776;6.968;2023-05-07T14:09:58;11.90;;;10.82;;
56724;SDS011;42608;52.776;6.968;2023-05-07T14:12:24;11.43;;;10.32;;
56724;SDS011;42608;52.776;6.968;2023-05-07T14:14:50;10.65;;;9.55;;
56724;SDS011;42608;52.776;6.968;2023-05-07T14:17:16;11.40;;;10.25;;
56724;SDS011;42608;52.776;6.968;2023-05-07T14:19:43;10.95;;;9.95;;
56724;SDS011;42608;52.776;6.968;2023-05-07T14:22:09;11.35;;;10.35;;
56724;SDS011;42608;52.776;6.968;2023-05-07T14:24:34;11.00;;;9.95;;
56724;SDS011;42608;52.776;6.968;2023-05-07T14:27:00;11.82;;;10.73;;
56724;SDS011;42608;52.776;6.968;2023-05-07T14:29:26;11.20;;;10.27;;